Strona główna
METAR-TAF:

METAR-TAF

Lotnisko :

Capo Mele

Andora, Włochy

Szerokość geograficzna: 43-57N, Długość geograficzna: 008-10E, wysokość: 220 m

Aktualna obserwacja pogody

Raport powstał 27 minut temu, godzina 12:55 UTC
Wiatr 17 kt od wschodnio-północny wschód
Temperatura 32°C
Wilgotność 56%
Ciśnienie 1019 hPa
Widzialność 10 km lub więcej
Mało chmury na wysokości 2500 ft, Cumulusy wypiętrznone.

METAR: LIMU 241255Z 06017KT 9999 FEW025TCU 32/22 Q1019 RMK FEW QUK 3 QUL 1 E VIS MAR 35 KM VIS MIN 9999

czas: 15:22 (13:22 UTC)


TAF: brakujący

Obserwacja i prognoza pogody dla ponad 4000 lotnisk (raport METAR i TAF).

Dostępne stacje oznaczono żółtymi i czerwonymi punktami na mapie.

Najedź kursorem aby zobaczyć nazwę stacji.

Kliknij aby zobaczyć obserwacje i prognozy pogody.

Aby zmienić mapę: kliknij na zielony przycisk z czarnym krzyżykiem, aby powiększyć; na zielony przycisk z myślnikiem, aby pomniejszyć; na zielone strzałki, aby przejść do map sąsiednich.


METAR-TAF: